createdAt,value
2023-01-07T00:01:07.021Z,53.68
2023-01-07T00:06:15.102Z,54.53
2023-01-07T00:11:24.362Z,54.14
2023-01-07T00:16:29.906Z,54.57
2023-01-07T00:21:32.736Z,55.24
2023-01-07T00:26:37.012Z,56.53
2023-01-07T00:31:41.167Z,56.26
2023-01-07T00:36:45.461Z,56.23
2023-01-07T00:42:11.503Z,56.63
2023-01-07T00:47:13.587Z,56.78
2023-01-07T00:52:15.623Z,57.13
2023-01-07T00:57:17.633Z,57.79
2023-01-07T01:02:19.801Z,58.15
2023-01-07T01:07:21.826Z,58.36
2023-01-07T01:12:23.990Z,58.23
2023-01-07T01:17:26.049Z,58.47
2023-01-07T01:22:28.032Z,58.92
2023-01-07T01:27:31.646Z,59.08
2023-01-07T01:32:33.706Z,59.45
2023-01-07T01:37:35.719Z,59.79
2023-01-07T01:42:37.821Z,60.01
2023-01-07T01:47:48.818Z,60.21
2023-01-07T01:53:16.531Z,60.58
2023-01-07T01:58:22.512Z,60.83
2023-01-07T02:03:26.496Z,60.68
2023-01-07T02:08:29.014Z,60.70
2023-01-07T02:13:38.802Z,61.20
2023-01-07T02:19:07.240Z,61.48
2023-01-07T02:24:24.372Z,61.66
2023-01-07T02:29:54.747Z,61.78
2023-01-07T02:35:12.805Z,61.58
2023-01-07T02:40:24.646Z,62.02
2023-01-07T02:45:39.676Z,61.86
2023-01-07T02:50:41.686Z,62.14
2023-01-07T02:56:10.116Z,62.01
2023-01-07T03:01:30.552Z,62.83
2023-01-07T03:06:50.873Z,63.05
2023-01-07T03:12:15.850Z,62.39
2023-01-07T03:17:26.007Z,63.07
2023-01-07T03:22:31.004Z,63.17
2023-01-07T03:27:36.835Z,63.55
2023-01-07T03:32:58.317Z,63.49
2023-01-07T03:38:02.155Z,63.90
2023-01-07T03:43:04.614Z,64.03
2023-01-07T03:48:06.965Z,64.57
2023-01-07T03:53:09.112Z,64.29
2023-01-07T03:58:11.208Z,64.64
2023-01-07T04:03:13.223Z,64.69
2023-01-07T04:08:15.244Z,65.58
2023-01-07T04:13:17.184Z,65.77
2023-01-07T04:18:19.136Z,65.95
2023-01-07T04:23:21.136Z,65.19
2023-01-07T04:28:23.171Z,66.06
2023-01-07T04:33:25.130Z,66.32
2023-01-07T04:38:27.197Z,66.29
2023-01-07T04:43:29.213Z,66.38
2023-01-07T04:48:31.792Z,66.58
2023-01-07T04:53:33.812Z,66.29
2023-01-07T04:58:35.816Z,66.85
2023-01-07T05:03:37.981Z,66.95
2023-01-07T05:08:40.016Z,66.60
2023-01-07T05:13:41.939Z,66.60
2023-01-07T05:18:44.691Z,66.63
2023-01-07T05:23:46.727Z,66.55
2023-01-07T05:28:48.745Z,66.71
2023-01-07T05:33:50.751Z,66.17
2023-01-07T05:38:52.753Z,66.75
2023-01-07T05:43:54.702Z,66.87
2023-01-07T05:48:56.678Z,66.32
2023-01-07T05:53:58.665Z,66.75
2023-01-07T05:59:00.679Z,66.56
2023-01-07T06:04:02.717Z,66.77
2023-01-07T06:09:05.048Z,66.78
2023-01-07T06:14:07.044Z,66.89
2023-01-07T06:19:09.007Z,67.25
2023-01-07T06:24:11.629Z,68.00
2023-01-07T06:29:13.517Z,67.39
2023-01-07T06:34:15.664Z,67.74
2023-01-07T06:39:17.771Z,67.92
2023-01-07T06:44:19.962Z,68.38
2023-01-07T06:49:22.059Z,68.14
2023-01-07T06:54:24.073Z,68.15
2023-01-07T06:59:26.070Z,68.39
2023-01-07T07:04:28.043Z,68.45
2023-01-07T07:09:30.034Z,68.38
2023-01-07T07:14:32.243Z,68.49
2023-01-07T07:19:34.231Z,68.99
2023-01-07T07:24:36.206Z,69.52
2023-01-07T07:29:38.190Z,69.57
2023-01-07T07:34:40.250Z,69.85
2023-01-07T07:39:42.228Z,70.48
2023-01-07T07:44:44.243Z,71.76
2023-01-07T07:49:46.351Z,72.75
2023-01-07T07:54:48.459Z,72.06
2023-01-07T07:59:50.741Z,73.11
2023-01-07T08:04:52.783Z,73.26
2023-01-07T08:09:54.880Z,73.67
2023-01-07T08:14:57.141Z,74.53
2023-01-07T08:19:59.264Z,74.72
2023-01-07T08:25:02.291Z,74.28
2023-01-07T08:30:04.804Z,75.14
2023-01-07T08:35:10.583Z,75.12
2023-01-07T08:40:16.168Z,75.28
2023-01-07T08:45:19.527Z,76.22
2023-01-07T08:50:21.571Z,76.12
2023-01-07T08:55:24.929Z,76.17
2023-01-07T09:00:28.399Z,79.03
2023-01-07T09:05:33.374Z,79.76
2023-01-07T09:10:36.723Z,78.93
2023-01-07T09:15:40.912Z,82.95
2023-01-07T09:20:43.158Z,83.93
2023-01-07T09:25:46.206Z,83.64
2023-01-07T09:30:48.708Z,82.97
2023-01-07T09:35:50.936Z,82.05
2023-01-07T09:40:54.940Z,77.60
2023-01-07T09:46:01.213Z,74.44
2023-01-07T09:51:24.305Z,73.43
2023-01-07T09:56:37.544Z,72.48
2023-01-07T10:01:50.939Z,71.54
2023-01-07T10:07:17.831Z,69.31
2023-01-07T10:12:32.228Z,69.35
2023-01-07T10:17:46.223Z,68.59
2023-01-07T10:22:57.691Z,66.93
2023-01-07T10:28:06.079Z,66.64
2023-01-07T10:33:29.276Z,66.80
2023-01-07T10:38:35.572Z,67.16
2023-01-07T10:44:33.956Z,67.54
2023-01-07T10:49:57.765Z,67.41
2023-01-07T10:55:06.232Z,66.42
2023-01-07T11:00:14.843Z,67.24
2023-01-07T11:05:21.357Z,67.36
2023-01-07T11:10:30.743Z,66.89
2023-01-07T11:15:37.670Z,67.74
2023-01-07T11:20:54.705Z,67.82
2023-01-07T11:26:06.524Z,67.93
2023-01-07T11:31:09.217Z,68.31
2023-01-07T11:36:12.432Z,68.37
2023-01-07T11:41:27.166Z,68.37
2023-01-07T11:46:32.734Z,68.68
2023-01-07T11:51:41.660Z,68.24
2023-01-07T11:56:43.841Z,68.49
2023-01-07T12:01:55.214Z,68.87
2023-01-07T12:07:01.687Z,69.11
2023-01-07T12:12:39.669Z,69.71
2023-01-07T12:17:50.788Z,69.67
2023-01-07T12:23:23.296Z,69.92
2023-01-07T12:28:51.490Z,70.76
2023-01-07T12:34:28.984Z,70.69
2023-01-07T12:39:45.622Z,70.62
2023-01-07T12:44:52.240Z,75.40
2023-01-07T12:50:22.083Z,79.19
2023-01-07T12:55:35.071Z,80.62
2023-01-07T13:00:47.118Z,79.95
2023-01-07T13:05:54.813Z,79.44
2023-01-07T13:11:04.099Z,77.95
2023-01-07T13:16:06.878Z,76.28
2023-01-07T13:21:11.102Z,74.77
2023-01-07T13:26:51.057Z,73.33
2023-01-07T13:32:13.316Z,71.79
2023-01-07T13:37:29.178Z,70.36
2023-01-07T13:43:02.682Z,68.35
2023-01-07T13:48:17.836Z,66.54
2023-01-07T13:53:19.870Z,64.82
2023-01-07T13:58:32.263Z,65.75
2023-01-07T14:03:39.524Z,65.55
2023-01-07T14:08:42.844Z,64.97
2023-01-07T14:14:14.155Z,63.48
2023-01-07T14:19:58.926Z,62.65
2023-01-07T14:25:09.578Z,62.03
2023-01-07T14:30:29.441Z,62.43
2023-01-07T14:35:40.833Z,61.39
2023-01-07T14:40:42.949Z,61.45
2023-01-07T14:45:45.114Z,60.20
2023-01-07T14:51:03.983Z,61.21
2023-01-07T14:56:18.346Z,60.44
2023-01-07T15:01:29.656Z,59.76
2023-01-07T15:06:36.566Z,60.65
2023-01-07T15:12:00.595Z,60.53
2023-01-07T15:17:03.804Z,60.10
2023-01-07T15:22:09.236Z,60.43
2023-01-07T15:27:33.523Z,60.61
2023-01-07T15:33:01.729Z,60.42
2023-01-07T15:38:10.027Z,61.01
2023-01-07T15:43:26.870Z,59.84
2023-01-07T15:48:32.449Z,60.70
2023-01-07T15:53:37.059Z,61.06
2023-01-07T15:58:46.830Z,61.37
2023-01-07T16:03:51.859Z,61.71
2023-01-07T16:09:03.530Z,61.17
2023-01-07T16:14:20.626Z,61.54
2023-01-07T16:19:24.573Z,62.38
2023-01-07T16:24:34.405Z,62.61
2023-01-07T16:29:46.565Z,62.76
2023-01-07T16:35:16.217Z,62.31
2023-01-07T16:40:36.817Z,62.93
2023-01-07T16:45:41.481Z,63.26
2023-01-07T16:50:49.003Z,62.68
2023-01-07T16:55:58.962Z,63.11
2023-01-07T17:01:09.414Z,63.14
2023-01-07T17:06:20.947Z,63.44
2023-01-07T17:11:51.770Z,63.17
2023-01-07T17:17:10.887Z,63.39
2023-01-07T17:22:42.318Z,63.64
2023-01-07T17:27:57.974Z,63.94
2023-01-07T17:33:05.915Z,63.92
2023-01-07T17:38:16.992Z,64.03
2023-01-07T17:43:37.306Z,64.24
2023-01-07T17:48:39.886Z,64.23
2023-01-07T17:53:48.963Z,64.57
2023-01-07T17:58:57.360Z,64.49
2023-01-07T18:04:03.834Z,70.45
2023-01-07T18:09:08.964Z,72.84
2023-01-07T18:14:16.196Z,75.20
2023-01-07T18:19:19.217Z,74.99
2023-01-07T18:24:23.116Z,74.43
2023-01-07T18:29:29.719Z,73.10
2023-01-07T18:34:34.176Z,72.35
2023-01-07T18:39:39.122Z,70.90
2023-01-07T18:44:41.517Z,69.83
2023-01-07T18:49:44.578Z,69.58
2023-01-07T18:55:14.544Z,68.19
2023-01-07T19:00:18.934Z,67.34
2023-01-07T19:05:21.367Z,66.25
2023-01-07T19:10:25.176Z,65.27
2023-01-07T19:15:36.893Z,63.87
2023-01-07T19:20:47.739Z,63.52
2023-01-07T19:26:02.019Z,62.50
2023-01-07T19:31:09.249Z,61.12
2023-01-07T19:36:17.671Z,61.13
2023-01-07T19:41:21.777Z,59.56
2023-01-07T19:46:25.736Z,58.92
2023-01-07T19:51:28.675Z,57.27
2023-01-07T19:57:01.629Z,54.53
2023-01-07T20:08:34.259Z,54.11
2023-01-07T20:13:40.710Z,53.95
2023-01-07T20:19:11.566Z,53.57
2023-01-07T20:24:30.292Z,54.19
2023-01-07T20:29:47.123Z,54.29
2023-01-07T20:34:50.568Z,53.96
2023-01-07T20:39:52.814Z,54.61
2023-01-07T20:44:55.409Z,55.16
2023-01-07T20:50:01.993Z,55.82
2023-01-07T20:55:07.060Z,54.60
2023-01-07T21:00:10.940Z,55.04
2023-01-07T21:05:14.467Z,55.56
2023-01-07T21:10:19.363Z,56.58
2023-01-07T21:15:22.827Z,56.98
2023-01-07T21:20:26.159Z,56.99
2023-01-07T21:25:29.404Z,57.14
2023-01-07T21:30:32.732Z,57.66
2023-01-07T21:35:38.415Z,57.89
2023-01-07T21:40:56.051Z,58.44
2023-01-07T21:46:09.819Z,58.83
2023-01-07T21:51:19.108Z,59.04
2023-01-07T21:56:22.274Z,59.44
2023-01-07T22:01:29.078Z,59.04
2023-01-07T22:06:36.785Z,59.72
2023-01-07T22:11:42.182Z,60.07
2023-01-07T22:16:46.879Z,59.77
2023-01-07T22:21:52.787Z,60.21
2023-01-07T22:26:55.942Z,59.91
2023-01-07T22:32:08.014Z,60.29
2023-01-07T22:37:15.015Z,61.25
2023-01-07T22:42:27.020Z,61.22
2023-01-07T22:47:36.682Z,61.86
2023-01-07T22:52:39.761Z,61.81
2023-01-07T22:57:42.329Z,61.74
2023-01-07T23:02:44.535Z,62.15
2023-01-07T23:07:46.571Z,62.74
2023-01-07T23:12:48.706Z,62.57
2023-01-07T23:17:50.752Z,62.69
2023-01-07T23:22:52.876Z,63.07
2023-01-07T23:27:54.925Z,63.54
2023-01-07T23:32:57.259Z,63.31
2023-01-07T23:38:00.711Z,63.79
2023-01-07T23:43:03.927Z,64.11
2023-01-07T23:48:06.096Z,64.05
2023-01-07T23:53:08.124Z,64.24
2023-01-07T23:58:10.552Z,64.13
